createdAt,value
2019-04-30T00:00:06.203Z,38.67
2019-04-30T00:02:45.387Z,44.80
2019-04-30T00:05:17.787Z,39.97
2019-04-30T00:07:50.848Z,42.80
2019-04-30T00:10:19.670Z,43.90
2019-04-30T00:12:48.761Z,38.03
2019-04-30T00:15:19.466Z,42.07
2019-04-30T00:17:53.022Z,37.03
2019-04-30T00:20:30.038Z,39.70
2019-04-30T00:22:58.918Z,39.90
2019-04-30T00:25:28.728Z,41.70
2019-04-30T00:28:00.247Z,39.80
2019-04-30T00:30:29.162Z,35.27
2019-04-30T00:32:58.256Z,34.10
2019-04-30T00:35:29.065Z,40.40
2019-04-30T00:38:00.268Z,38.80
2019-04-30T00:40:30.749Z,37.17
2019-04-30T00:43:05.307Z,40.33
2019-04-30T00:45:32.789Z,41.03
2019-04-30T00:48:01.964Z,39.33
2019-04-30T00:50:33.904Z,53.40
2019-04-30T00:53:07.257Z,40.67
2019-04-30T00:55:40.191Z,41.77
2019-04-30T00:58:10.894Z,51.43
2019-04-30T01:00:52.642Z,41.67
2019-04-30T01:03:27.384Z,48.10
2019-04-30T01:05:56.750Z,42.20
2019-04-30T01:08:29.137Z,43.63
2019-04-30T01:10:59.857Z,46.03
2019-04-30T01:13:29.197Z,43.13
2019-04-30T01:15:58.750Z,53.43
2019-04-30T01:18:32.063Z,41.30
2019-04-30T01:21:02.985Z,39.80
2019-04-30T01:23:36.371Z,40.00
2019-04-30T01:26:05.583Z,39.27
2019-04-30T01:28:34.648Z,40.07
2019-04-30T01:31:03.853Z,40.93
2019-04-30T01:33:35.735Z,35.83
2019-04-30T01:36:11.193Z,39.37
2019-04-30T01:38:40.027Z,38.73
2019-04-30T01:41:06.834Z,38.33
2019-04-30T01:43:35.993Z,36.27
2019-04-30T01:46:09.255Z,39.13
2019-04-30T01:48:39.175Z,54.73
2019-04-30T01:51:13.352Z,40.37
2019-04-30T01:53:43.837Z,44.00
2019-04-30T01:56:50.239Z,38.37
2019-04-30T01:59:23.657Z,38.63
2019-04-30T02:01:53.111Z,41.17
2019-04-30T02:04:23.972Z,40.83
2019-04-30T02:06:53.265Z,40.30
2019-04-30T02:09:22.770Z,37.50
2019-04-30T02:11:51.924Z,37.27
2019-04-30T02:14:24.738Z,36.70
2019-04-30T02:16:54.968Z,38.13
2019-04-30T02:19:24.127Z,36.40
2019-04-30T02:22:00.538Z,38.07
2019-04-30T02:24:30.263Z,38.80
2019-04-30T02:27:03.075Z,35.87
2019-04-30T02:29:32.194Z,37.70
2019-04-30T02:32:01.458Z,36.70
2019-04-30T02:34:41.141Z,33.30
2019-04-30T02:37:31.032Z,34.07
2019-04-30T02:40:05.057Z,32.00
2019-04-30T02:42:34.469Z,31.63
2019-04-30T02:45:04.271Z,29.87
2019-04-30T02:47:36.776Z,31.80
2019-04-30T02:50:15.265Z,29.90
2019-04-30T02:52:40.248Z,30.63
2019-04-30T02:55:19.462Z,29.70
2019-04-30T02:57:54.563Z,29.70
2019-04-30T03:00:32.552Z,24.03
2019-04-30T03:03:10.255Z,29.33
2019-04-30T03:05:49.722Z,26.20
2019-04-30T03:08:29.739Z,33.83
2019-04-30T03:11:00.686Z,34.20
2019-04-30T03:13:37.678Z,33.10
2019-04-30T03:16:16.340Z,32.33
2019-04-30T03:19:12.312Z,36.30
2019-04-30T03:22:00.393Z,33.07
2019-04-30T03:24:29.684Z,34.00
2019-04-30T03:26:59.507Z,33.70
2019-04-30T03:29:30.505Z,35.27
2019-04-30T03:32:02.868Z,28.03
2019-04-30T03:34:34.731Z,32.23
2019-04-30T03:37:03.884Z,33.40
2019-04-30T03:39:34.024Z,29.03
2019-04-30T03:42:03.668Z,32.10
2019-04-30T03:44:39.990Z,32.67
2019-04-30T03:47:10.903Z,28.87
2019-04-30T03:49:40.297Z,27.80
2019-04-30T03:52:13.240Z,25.93
2019-04-30T03:54:42.294Z,27.40
2019-04-30T03:57:13.115Z,26.77
2019-04-30T03:59:51.151Z,28.03
2019-04-30T04:02:40.497Z,26.80
2019-04-30T04:05:39.964Z,30.37
2019-04-30T04:08:29.516Z,29.67
2019-04-30T04:11:21.354Z,31.30
2019-04-30T04:13:59.504Z,30.73
2019-04-30T04:16:32.182Z,34.00
2019-04-30T04:19:02.761Z,30.73
2019-04-30T04:21:33.432Z,33.27
2019-04-30T04:24:04.836Z,34.23
2019-04-30T04:26:37.059Z,28.40
2019-04-30T04:29:09.449Z,29.40
2019-04-30T04:31:41.696Z,30.30
2019-04-30T04:34:12.983Z,30.83
2019-04-30T04:36:51.401Z,27.20
2019-04-30T04:39:21.894Z,25.93
2019-04-30T04:41:52.173Z,26.93
2019-04-30T04:44:24.302Z,28.07
2019-04-30T04:46:53.484Z,27.20
2019-04-30T04:49:30.293Z,29.13
2019-04-30T04:51:59.271Z,25.87
2019-04-30T04:54:31.294Z,30.43
2019-04-30T04:57:17.009Z,27.13
2019-04-30T04:59:44.553Z,28.63
2019-04-30T05:02:32.572Z,24.77
2019-04-30T05:05:02.389Z,28.03
2019-04-30T05:07:37.163Z,25.27
2019-04-30T05:10:06.434Z,30.27
2019-04-30T05:12:39.887Z,31.80
2019-04-30T05:15:09.749Z,30.73
2019-04-30T05:17:41.718Z,29.13
2019-04-30T05:20:13.475Z,34.27
2019-04-30T05:22:44.054Z,35.50
2019-04-30T05:25:20.273Z,32.47
2019-04-30T05:27:52.913Z,30.70
2019-04-30T05:30:26.704Z,32.80
2019-04-30T05:32:56.260Z,35.37
2019-04-30T05:35:25.506Z,28.80
2019-04-30T05:37:59.925Z,34.63
2019-04-30T05:40:29.145Z,35.63
2019-04-30T05:43:00.331Z,34.83
2019-04-30T05:45:39.000Z,44.20
2019-04-30T05:48:08.853Z,41.00
2019-04-30T05:50:41.541Z,39.13
2019-04-30T05:53:19.070Z,50.73
2019-04-30T05:55:51.311Z,42.87
2019-04-30T05:58:20.450Z,40.80
2019-04-30T06:00:50.031Z,49.97
2019-04-30T06:03:30.754Z,47.40
2019-04-30T06:05:58.949Z,42.90
2019-04-30T06:08:34.380Z,52.10
2019-04-30T06:11:16.661Z,48.70
2019-04-30T06:14:18.566Z,55.60
2019-04-30T06:17:05.104Z,51.27
2019-04-30T06:19:34.916Z,45.87
2019-04-30T06:22:07.496Z,48.10
2019-04-30T06:24:39.570Z,50.27
2019-04-30T06:27:11.279Z,51.80
2019-04-30T06:29:45.063Z,62.73
2019-04-30T06:32:15.501Z,47.33
2019-04-30T06:34:46.055Z,44.07
2019-04-30T06:37:15.767Z,52.23
2019-04-30T06:39:47.099Z,43.80
2019-04-30T06:42:21.380Z,46.90
2019-04-30T06:44:53.020Z,39.60
2019-04-30T06:47:32.697Z,45.50
2019-04-30T06:49:55.726Z,47.73
2019-04-30T06:52:26.947Z,44.40
2019-04-30T06:54:59.657Z,42.37
2019-04-30T06:57:29.685Z,49.87
2019-04-30T07:00:09.684Z,49.10
2019-04-30T07:02:39.363Z,45.50
2019-04-30T07:05:12.316Z,52.53
2019-04-30T07:08:08.903Z,47.03
2019-04-30T07:10:34.948Z,49.73
2019-04-30T07:13:24.225Z,49.20
2019-04-30T07:15:54.947Z,51.97
2019-04-30T07:18:29.585Z,47.50
2019-04-30T07:20:58.797Z,41.13
2019-04-30T07:23:31.586Z,46.10
2019-04-30T07:26:02.204Z,46.50
2019-04-30T07:28:46.974Z,53.13
2019-04-30T07:31:19.193Z,47.27
2019-04-30T07:33:53.022Z,54.23
2019-04-30T07:36:19.768Z,46.30
2019-04-30T07:38:54.524Z,44.90
2019-04-30T07:41:23.047Z,59.27
2019-04-30T07:43:52.543Z,42.60
2019-04-30T07:46:22.732Z,46.63
2019-04-30T07:48:54.194Z,50.60
2019-04-30T07:51:24.029Z,42.87
2019-04-30T07:53:55.035Z,53.70
2019-04-30T07:56:34.928Z,47.50
2019-04-30T07:59:02.883Z,41.20
2019-04-30T08:01:30.816Z,45.10
2019-04-30T08:04:19.328Z,49.60
2019-04-30T08:06:53.031Z,38.90
2019-04-30T08:09:23.966Z,49.70
2019-04-30T08:11:59.340Z,53.73
2019-04-30T08:14:31.072Z,45.07
2019-04-30T08:17:04.175Z,45.40
2019-04-30T08:19:33.474Z,48.00
2019-04-30T08:22:05.893Z,45.53
2019-04-30T08:24:35.090Z,50.73
2019-04-30T08:27:04.330Z,42.27
2019-04-30T08:29:36.024Z,45.07
2019-04-30T08:32:06.536Z,44.80
2019-04-30T08:34:39.237Z,40.60
2019-04-30T08:37:17.277Z,38.90
2019-04-30T08:39:43.522Z,47.13
2019-04-30T08:42:12.714Z,45.17
2019-04-30T08:44:42.605Z,42.43
2019-04-30T08:47:13.061Z,40.30
2019-04-30T08:49:43.058Z,46.87
2019-04-30T08:52:12.857Z,41.73
2019-04-30T08:54:42.005Z,44.33
2019-04-30T08:57:11.207Z,44.03
2019-04-30T08:59:40.891Z,45.53
2019-04-30T09:02:16.125Z,39.80
2019-04-30T09:04:41.132Z,49.10
2019-04-30T09:07:10.666Z,51.80
2019-04-30T09:09:40.721Z,46.87
2019-04-30T09:12:14.670Z,43.90
2019-04-30T09:14:43.929Z,49.93
2019-04-30T09:17:13.160Z,46.30
2019-04-30T09:19:49.011Z,42.30
2019-04-30T09:22:21.165Z,40.27
2019-04-30T09:24:50.358Z,39.30
2019-04-30T09:27:19.874Z,40.90
2019-04-30T09:29:49.442Z,45.70
2019-04-30T09:32:21.120Z,43.60
2019-04-30T09:34:50.322Z,47.30
2019-04-30T09:37:21.943Z,45.30
2019-04-30T09:39:51.472Z,47.10
2019-04-30T09:42:23.244Z,40.60
2019-04-30T09:44:54.296Z,49.20
2019-04-30T09:47:26.351Z,41.43
2019-04-30T09:49:59.512Z,43.93
2019-04-30T09:52:30.613Z,40.90
2019-04-30T09:55:03.432Z,44.43
2019-04-30T09:57:38.991Z,49.57
2019-04-30T10:00:09.315Z,42.13
2019-04-30T10:02:42.639Z,44.70
2019-04-30T10:05:13.049Z,41.13
2019-04-30T10:07:53.117Z,40.80
2019-04-30T10:10:28.918Z,42.33
2019-04-30T10:12:59.416Z,42.20
2019-04-30T10:16:02.901Z,49.50
2019-04-30T10:18:32.319Z,43.90
2019-04-30T10:21:02.428Z,37.53
2019-04-30T10:23:31.557Z,46.43
2019-04-30T10:26:01.142Z,40.80
2019-04-30T10:28:31.162Z,41.33
2019-04-30T10:31:00.307Z,46.03
2019-04-30T10:33:30.863Z,40.37
2019-04-30T10:36:09.448Z,42.93
2019-04-30T10:38:39.365Z,39.17
2019-04-30T10:41:10.516Z,36.13
2019-04-30T10:43:41.016Z,36.00
2019-04-30T10:46:10.235Z,39.03
2019-04-30T10:48:43.455Z,36.60
2019-04-30T10:51:12.866Z,36.70
2019-04-30T10:53:42.289Z,37.93
2019-04-30T10:56:13.239Z,37.37
2019-04-30T10:58:42.438Z,33.63
2019-04-30T11:01:29.231Z,36.23
2019-04-30T11:04:01.975Z,33.03
2019-04-30T11:06:31.957Z,36.40
2019-04-30T11:09:01.288Z,35.47
2019-04-30T11:11:49.845Z,36.30
2019-04-30T11:14:19.395Z,37.87
2019-04-30T11:16:51.771Z,34.80
2019-04-30T11:19:22.409Z,30.57
2019-04-30T11:21:51.837Z,33.57
2019-04-30T11:24:23.088Z,32.13
2019-04-30T11:26:54.223Z,33.33
2019-04-30T11:29:23.850Z,33.70
2019-04-30T11:32:03.514Z,30.40
2019-04-30T11:34:38.408Z,29.10
2019-04-30T11:37:09.966Z,36.00
2019-04-30T11:39:39.704Z,28.73
2019-04-30T11:42:10.741Z,31.50
2019-04-30T11:44:42.748Z,30.80
2019-04-30T11:47:36.150Z,31.97
2019-04-30T11:50:11.844Z,29.50
2019-04-30T11:52:42.845Z,26.20
2019-04-30T11:55:12.390Z,29.07
2019-04-30T11:57:41.514Z,32.07
2019-04-30T12:00:21.461Z,28.33
2019-04-30T12:02:52.910Z,26.90
2019-04-30T12:05:24.240Z,27.70
2019-04-30T12:08:03.161Z,24.97
2019-04-30T12:10:42.164Z,30.10
2019-04-30T12:13:29.818Z,26.70
2019-04-30T12:15:59.396Z,27.30
2019-04-30T12:18:29.711Z,29.37
2019-04-30T12:21:08.948Z,25.87
2019-04-30T12:23:38.112Z,30.20
2019-04-30T12:26:09.142Z,26.47
2019-04-30T12:28:38.229Z,33.93
2019-04-30T12:31:09.896Z,24.83
2019-04-30T12:33:39.558Z,21.33
2019-04-30T12:46:18.948Z,24.97
2019-04-30T12:48:59.466Z,19.53
2019-04-30T12:51:45.043Z,26.47
2019-04-30T12:54:12.270Z,26.47
2019-04-30T12:57:03.866Z,25.53
2019-04-30T12:59:39.323Z,27.40
2019-04-30T13:02:09.116Z,27.37
2019-04-30T13:04:39.361Z,25.03
2019-04-30T13:07:10.902Z,26.83
2019-04-30T13:09:41.507Z,25.83
2019-04-30T13:12:11.784Z,27.37
2019-04-30T13:14:51.500Z,32.17
2019-04-30T13:17:14.484Z,28.13
2019-04-30T13:19:44.893Z,27.60
2019-04-30T13:22:14.021Z,24.33
2019-04-30T13:24:43.146Z,24.27
2019-04-30T13:27:14.709Z,24.50
2019-04-30T13:30:04.072Z,19.80
2019-04-30T13:32:39.459Z,23.30
2019-04-30T13:35:19.005Z,21.50
2019-04-30T13:37:59.178Z,22.97
2019-04-30T13:40:56.652Z,25.00
2019-04-30T13:43:45.095Z,21.80
2019-04-30T13:46:18.507Z,23.50
2019-04-30T13:48:47.206Z,26.00
2019-04-30T13:51:17.576Z,22.97
2019-04-30T13:53:51.395Z,23.03
2019-04-30T13:56:20.518Z,23.10
2019-04-30T13:58:51.643Z,23.87
2019-04-30T14:01:25.465Z,24.07
2019-04-30T14:04:13.888Z,26.87
2019-04-30T14:07:14.230Z,26.47
2019-04-30T14:09:44.268Z,25.40
2019-04-30T14:12:16.841Z,24.97
2019-04-30T14:14:46.005Z,26.30
2019-04-30T14:17:15.190Z,22.47
2019-04-30T14:19:46.568Z,23.70
2019-04-30T14:22:15.867Z,23.13
2019-04-30T14:24:54.557Z,20.40
2019-04-30T14:27:24.170Z,27.60
2019-04-30T14:29:53.285Z,24.40
2019-04-30T14:32:25.108Z,19.43
2019-04-30T14:34:56.083Z,24.60
2019-04-30T14:37:27.320Z,23.30
2019-04-30T14:39:59.876Z,20.57
2019-04-30T14:42:30.693Z,21.37
2019-04-30T14:45:15.993Z,24.00
2019-04-30T14:48:05.411Z,25.97
2019-04-30T14:50:36.088Z,26.33
2019-04-30T14:53:21.360Z,21.70
2019-04-30T14:56:11.738Z,23.43
2019-04-30T14:58:58.557Z,21.30
2019-04-30T15:01:42.843Z,25.30
2019-04-30T15:04:14.936Z,21.37
2019-04-30T15:06:48.754Z,24.43
2019-04-30T15:09:20.612Z,19.70
2019-04-30T15:11:51.419Z,20.50
2019-04-30T15:14:20.541Z,22.03
2019-04-30T15:16:51.714Z,23.97
2019-04-30T15:19:22.004Z,23.60
2019-04-30T15:21:51.101Z,21.00
2019-04-30T15:24:39.346Z,20.60
2019-04-30T15:27:11.246Z,20.60
2019-04-30T15:29:44.255Z,20.13
2019-04-30T15:32:14.968Z,18.67
2019-04-30T15:34:46.165Z,20.90
2019-04-30T15:37:21.701Z,18.67
2019-04-30T15:39:52.343Z,19.93
2019-04-30T15:42:20.645Z,21.47
2019-04-30T15:44:52.285Z,18.07
2019-04-30T15:47:23.350Z,20.10
2019-04-30T15:49:52.525Z,18.23
2019-04-30T15:52:23.414Z,20.20
2019-04-30T15:54:52.456Z,23.03
2019-04-30T15:57:21.639Z,18.60
2019-04-30T15:59:52.509Z,18.43
2019-04-30T16:02:56.513Z,21.30
2019-04-30T16:05:38.270Z,17.77
2019-04-30T16:08:22.657Z,17.90
2019-04-30T16:11:11.117Z,16.57
2019-04-30T16:14:09.385Z,21.60
2019-04-30T16:16:43.722Z,19.33
2019-04-30T16:19:24.968Z,14.73
2019-04-30T16:21:56.833Z,19.00
2019-04-30T16:24:26.075Z,20.03
2019-04-30T16:27:01.303Z,18.60
2019-04-30T16:29:30.398Z,18.40
2019-04-30T16:31:59.830Z,17.70
2019-04-30T16:34:32.281Z,20.03
2019-04-30T16:37:01.425Z,18.20
2019-04-30T16:39:30.572Z,18.57
2019-04-30T16:42:00.880Z,19.30
2019-04-30T16:44:31.122Z,15.33
2019-04-30T16:47:13.754Z,17.70
2019-04-30T16:49:34.847Z,20.00
2019-04-30T16:52:05.083Z,16.10
2019-04-30T16:54:35.172Z,16.83
2019-04-30T16:57:06.716Z,16.43
2019-04-30T16:59:41.792Z,15.13
2019-04-30T17:02:14.627Z,16.60
2019-04-30T17:04:53.093Z,16.43
2019-04-30T17:07:34.013Z,17.37
2019-04-30T17:10:12.076Z,17.40
2019-04-30T17:12:51.573Z,17.10
2019-04-30T17:15:26.379Z,13.83
2019-04-30T17:17:55.597Z,13.90
2019-04-30T17:20:24.679Z,17.00
2019-04-30T17:22:54.532Z,15.60
2019-04-30T17:25:23.705Z,17.57
2019-04-30T17:27:52.777Z,17.10
2019-04-30T17:30:23.250Z,15.80
2019-04-30T17:32:52.754Z,18.60
2019-04-30T17:35:21.962Z,15.83
2019-04-30T17:37:51.026Z,18.67
2019-04-30T17:40:21.580Z,17.40
2019-04-30T17:42:53.194Z,13.33
2019-04-30T17:45:23.576Z,15.10
2019-04-30T17:47:54.918Z,17.10
2019-04-30T17:50:26.160Z,16.43
2019-04-30T17:53:00.897Z,16.27
2019-04-30T17:55:34.946Z,17.50
2019-04-30T17:58:05.965Z,18.73
2019-04-30T18:00:38.821Z,16.70
2019-04-30T18:03:08.831Z,21.63
2019-04-30T18:05:42.209Z,21.37
2019-04-30T18:08:11.498Z,19.53
2019-04-30T18:10:43.877Z,18.80
2019-04-30T18:13:13.334Z,17.43
2019-04-30T18:15:45.168Z,15.57
2019-04-30T18:18:26.626Z,17.93
2019-04-30T18:21:12.996Z,19.67
2019-04-30T18:24:08.572Z,21.77
2019-04-30T18:26:44.532Z,17.07
2019-04-30T18:29:13.626Z,16.10
2019-04-30T18:31:43.632Z,19.57
2019-04-30T18:34:13.833Z,18.63
2019-04-30T18:36:43.000Z,20.87
2019-04-30T18:39:18.811Z,18.43
2019-04-30T18:41:48.122Z,21.47
2019-04-30T18:44:19.561Z,20.80
2019-04-30T18:46:49.162Z,19.93
2019-04-30T18:49:21.829Z,17.03
2019-04-30T18:51:50.959Z,20.60
2019-04-30T18:54:21.052Z,22.73
2019-04-30T18:56:51.272Z,21.17
2019-04-30T18:59:23.217Z,21.77
2019-04-30T19:01:54.086Z,18.57
2019-04-30T19:04:23.280Z,23.33
2019-04-30T19:06:57.552Z,23.73
2019-04-30T19:09:40.169Z,18.27
2019-04-30T19:12:29.002Z,22.07
2019-04-30T19:15:18.301Z,19.70
2019-04-30T19:18:05.259Z,22.60
2019-04-30T19:20:49.702Z,22.63
2019-04-30T19:23:22.630Z,23.73
2019-04-30T19:25:52.303Z,24.03
2019-04-30T19:28:21.513Z,22.40
2019-04-30T19:30:58.864Z,15.93
2019-04-30T19:33:26.901Z,20.67
2019-04-30T19:35:55.989Z,21.30
2019-04-30T19:38:25.426Z,20.50
2019-04-30T19:40:56.543Z,20.57
2019-04-30T19:43:28.678Z,23.77
2019-04-30T19:46:00.799Z,22.50
2019-04-30T19:48:33.938Z,21.37
2019-04-30T19:51:04.413Z,21.83
2019-04-30T19:53:39.753Z,22.40
2019-04-30T19:56:10.383Z,25.40
2019-04-30T19:58:54.297Z,21.63
2019-04-30T20:01:12.601Z,23.90
2019-04-30T20:03:41.880Z,23.60
2019-04-30T20:06:12.096Z,23.13
2019-04-30T20:08:41.660Z,23.83
2019-04-30T20:11:10.795Z,23.30
2019-04-30T20:13:40.431Z,21.67
2019-04-30T20:16:09.786Z,25.30
2019-04-30T20:18:39.165Z,22.43
2019-04-30T20:21:12.292Z,21.60
2019-04-30T20:23:41.476Z,21.80
2019-04-30T20:26:11.923Z,23.03
2019-04-30T20:28:42.481Z,21.13
2019-04-30T20:31:13.253Z,25.77
2019-04-30T20:33:42.378Z,25.27
2019-04-30T20:36:11.473Z,29.73
2019-04-30T20:39:18.134Z,22.07
2019-04-30T20:41:50.942Z,21.53
2019-04-30T20:44:24.508Z,24.33
2019-04-30T20:46:53.694Z,26.93
2019-04-30T20:49:22.814Z,19.53
2019-04-30T20:51:58.992Z,26.80
2019-04-30T20:54:32.951Z,22.23
2019-04-30T20:57:02.054Z,19.80
2019-04-30T20:59:32.578Z,20.90
2019-04-30T21:02:03.168Z,18.20
2019-04-30T21:04:32.253Z,18.20
2019-04-30T21:07:01.359Z,22.00
2019-04-30T21:09:31.687Z,17.47
2019-04-30T21:12:02.588Z,16.67
2019-04-30T21:14:31.699Z,19.47
2019-04-30T21:17:06.129Z,25.90
2019-04-30T21:19:36.494Z,31.50
2019-04-30T21:22:09.590Z,28.77
2019-04-30T21:24:52.674Z,35.50
2019-04-30T21:27:21.873Z,26.67
2019-04-30T21:29:52.449Z,26.90
2019-04-30T21:32:32.117Z,26.00
2019-04-30T21:35:40.475Z,24.33
2019-04-30T21:38:19.371Z,23.47
2019-04-30T21:40:49.589Z,27.40
2019-04-30T21:43:20.601Z,26.97
2019-04-30T21:45:52.228Z,21.43
2019-04-30T21:48:21.357Z,24.60
2019-04-30T21:50:50.611Z,17.87
2019-04-30T21:53:19.734Z,23.13
2019-04-30T21:55:53.302Z,22.47
2019-04-30T21:58:22.608Z,22.80
2019-04-30T22:01:18.421Z,20.33
2019-04-30T22:03:52.020Z,19.80
2019-04-30T22:06:24.468Z,17.73
2019-04-30T22:08:58.547Z,20.37
2019-04-30T22:11:29.811Z,19.00
2019-04-30T22:14:00.653Z,21.20
2019-04-30T22:16:32.798Z,21.17
2019-04-30T22:19:01.986Z,18.30
2019-04-30T22:21:31.058Z,18.80
2019-04-30T22:24:00.161Z,19.17
2019-04-30T22:26:29.236Z,18.40
2019-04-30T22:28:59.359Z,24.20
2019-04-30T22:31:29.616Z,21.37
2019-04-30T22:33:59.270Z,22.23
2019-04-30T22:36:48.655Z,18.07
2019-04-30T22:39:29.877Z,19.03
2019-04-30T22:42:30.059Z,18.97
2019-04-30T22:45:04.084Z,19.70
2019-04-30T22:47:33.199Z,19.47
2019-04-30T22:50:02.253Z,21.10
2019-04-30T22:52:32.645Z,19.87
2019-04-30T22:55:06.412Z,22.47
2019-04-30T22:57:35.417Z,20.47
2019-04-30T23:00:11.481Z,20.07
2019-04-30T23:03:00.260Z,20.10
2019-04-30T23:05:29.408Z,19.80
2019-04-30T23:07:58.685Z,21.07
2019-04-30T23:10:31.246Z,22.83
2019-04-30T23:13:00.299Z,19.87
2019-04-30T23:15:29.481Z,20.03
2019-04-30T23:17:58.656Z,19.23
2019-04-30T23:20:29.053Z,20.97
2019-04-30T23:22:58.116Z,24.17
2019-04-30T23:25:29.807Z,24.17
2019-04-30T23:28:01.777Z,26.30
2019-04-30T23:30:30.865Z,27.17
2019-04-30T23:32:59.963Z,28.90
2019-04-30T23:35:29.914Z,20.90
2019-04-30T23:38:01.603Z,21.70
2019-04-30T23:40:41.950Z,21.80
2019-04-30T23:43:11.168Z,17.67
2019-04-30T23:45:40.203Z,20.23
2019-04-30T23:48:09.292Z,20.03
2019-04-30T23:50:40.277Z,17.07
2019-04-30T23:53:15.059Z,16.70
2019-04-30T23:55:44.534Z,22.77
2019-04-30T23:58:13.945Z,18.77
